Time;durP1;ratioP1;P1;durP2;ratioP2;P2;SDS_P1;SDS_P2;PMS_P1;PMS_P2;Temp;Humidity;BMP_temperature;BMP_pressure;BME280_temperature;BME280_humidity;BME280_pressure;Samples;Min_cycle;Max_cycle;Signal;HPM_P1;HPM_P2
2023/08/22 00:01:34;;;;;;;10.03;2.60;;;;;;;;;;5056808;28;20104;-27
2023/08/22 00:03:59;;;;;;;8.02;2.80;;;;;;;;;;5056065;28;20770;-28
2023/08/22 00:06:25;;;;;;;7.90;2.70;;;;;;;;;;5056745;28;20415;-27
2023/08/22 00:08:50;;;;;;;6.80;2.45;;;;;;;;;;5056418;28;20718;-27
2023/08/22 00:11:15;;;;;;;5.63;2.60;;;;;;;;;;5056539;28;20341;-28
2023/08/22 00:13:40;;;;;;;9.38;2.83;;;;;;;;;;5056041;28;20028;-28
2023/08/22 00:16:06;;;;;;;8.10;2.20;;;;;;;;;;5055975;28;20027;-28
2023/08/22 00:18:31;;;;;;;7.77;2.50;;;;;;;;;;5056453;28;20074;-27
2023/08/22 00:20:56;;;;;;;8.03;2.63;;;;;;;;;;5055881;28;20251;-28
2023/08/22 00:23:21;;;;;;;5.00;2.47;;;;;;;;;;5055810;28;20378;-28
2023/08/22 00:25:47;;;;;;;13.23;3.20;;;;;;;;;;5037904;28;20332;-28
2023/08/22 00:28:14;;;;;;;7.87;2.40;;;;;;;;;;5055761;28;20074;-28
2023/08/22 00:30:40;;;;;;;8.05;2.67;;;;;;;;;;5055891;28;20769;-28
2023/08/22 00:33:05;;;;;;;8.93;2.83;;;;;;;;;;5055585;28;20039;-27
2023/08/22 00:35:30;;;;;;;5.60;2.42;;;;;;;;;;5055186;28;20021;-28
2023/08/22 00:37:56;;;;;;;5.45;2.63;;;;;;;;;;5055801;28;20106;-27
2023/08/22 00:40:21;;;;;;;5.78;2.70;;;;;;;;;;5056384;28;20388;-28
2023/08/22 00:42:46;;;;;;;7.78;2.80;;;;;;;;;;5055698;28;20029;-28
2023/08/22 00:45:12;;;;;;;7.40;2.60;;;;;;;;;;5055691;28;20364;-28
2023/08/22 00:47:37;;;;;;;8.48;2.75;;;;;;;;;;5055953;28;20654;-28
2023/08/22 00:50:04;;;;;;;6.57;2.55;;;;;;;;;;5055632;28;20025;-28
2023/08/22 00:52:29;;;;;;;8.35;2.65;;;;;;;;;;5055232;28;20024;-29
2023/08/22 00:54:54;;;;;;;7.40;2.97;;;;;;;;;;5055784;28;20025;-29
2023/08/22 00:57:20;;;;;;;7.35;2.85;;;;;;;;;;5055500;28;20021;-28
2023/08/22 00:59:45;;;;;;;6.80;2.80;;;;;;;;;;5055159;28;20048;-28
2023/08/22 01:02:11;;;;;;;7.38;2.95;;;;;;;;;;5055050;28;20028;-28
2023/08/22 01:04:36;;;;;;;6.00;2.90;;;;;;;;;;5055336;28;20009;-29
2023/08/22 01:07:06;;;;;;;8.05;2.88;;;;;;;;;;5055085;28;20071;-29
2023/08/22 01:09:33;;;;;;;5.60;2.50;;;;;;;;;;5055017;28;20023;-28
2023/08/22 01:12:13;;;;;;;7.75;2.90;;;;;;;;;;5054937;28;20399;-29
2023/08/22 01:14:41;;;;;;;5.63;2.53;;;;;;;;;;5055330;28;20369;-28
2023/08/22 01:17:06;;;;;;;7.05;2.67;;;;;;;;;;5055061;28;20047;-29
2023/08/22 01:19:32;;;;;;;6.47;2.47;;;;;;;;;;5055080;28;20103;-29
2023/08/22 01:21:57;;;;;;;7.35;2.50;;;;;;;;;;5054720;28;20031;-29
2023/08/22 01:24:22;;;;;;;6.93;2.80;;;;;;;;;;5055255;28;20013;-29
2023/08/22 01:26:47;;;;;;;5.80;2.50;;;;;;;;;;5054671;28;20279;-29
2023/08/22 01:29:26;;;;;;;6.18;2.53;;;;;;;;;;5054877;28;20258;-29
2023/08/22 01:31:52;;;;;;;8.25;2.50;;;;;;;;;;5054422;28;20031;-28
2023/08/22 01:34:20;;;;;;;7.38;2.50;;;;;;;;;;5053226;28;20115;-29
2023/08/22 01:36:46;;;;;;;6.30;2.45;;;;;;;;;;5054504;28;20025;-27
2023/08/22 01:39:14;;;;;;;6.43;2.50;;;;;;;;;;5054497;28;20104;-29
2023/08/22 01:41:39;;;;;;;7.53;2.78;;;;;;;;;;5054946;28;20021;-29
2023/08/22 01:44:04;;;;;;;7.32;2.67;;;;;;;;;;5054251;28;20028;-29
2023/08/22 01:46:30;;;;;;;10.07;2.67;;;;;;;;;;5053667;28;20013;-29
2023/08/22 01:48:55;;;;;;;10.57;2.70;;;;;;;;;;5054479;28;20373;-29
2023/08/22 01:51:20;;;;;;;5.32;2.50;;;;;;;;;;5054438;28;20055;-28
2023/08/22 01:53:46;;;;;;;10.15;2.67;;;;;;;;;;5054070;28;20345;-28
2023/08/22 01:56:11;;;;;;;7.87;2.80;;;;;;;;;;5054162;28;20094;-28
2023/08/22 01:58:36;;;;;;;10.20;3.00;;;;;;;;;;5054067;28;20718;-28
2023/08/22 02:01:11;;;;;;;7.13;2.80;;;;;;;;;;5054265;28;20031;-28
2023/08/22 02:03:36;;;;;;;8.25;2.50;;;;;;;;;;5054120;28;20370;-28
2023/08/22 02:06:01;;;;;;;5.97;2.53;;;;;;;;;;5054212;28;20147;-28
2023/08/22 02:08:27;;;;;;;4.80;2.58;;;;;;;;;;5053859;28;20349;-28
2023/08/22 02:10:52;;;;;;;6.30;2.70;;;;;;;;;;5053817;28;20044;-27
2023/08/22 02:13:17;;;;;;;7.53;3.03;;;;;;;;;;5053685;28;20764;-28
2023/08/22 02:15:42;;;;;;;4.50;2.80;;;;;;;;;;5054034;28;20266;-28
2023/08/22 02:18:07;;;;;;;6.03;2.90;;;;;;;;;;5053708;28;20472;-28
2023/08/22 02:20:32;;;;;;;10.80;2.60;;;;;;;;;;5054262;28;20109;-28
2023/08/22 02:22:58;;;;;;;5.65;2.60;;;;;;;;;;5053870;28;20361;-29
2023/08/22 02:25:23;;;;;;;7.70;2.90;;;;;;;;;;5053835;28;20013;-28
2023/08/22 02:27:49;;;;;;;11.07;3.00;;;;;;;;;;5053667;28;20021;-29
2023/08/22 02:30:14;;;;;;;9.07;3.00;;;;;;;;;;5053333;28;20032;-28
2023/08/22 02:32:39;;;;;;;6.37;2.60;;;;;;;;;;5053504;28;20255;-29
2023/08/22 02:35:06;;;;;;;8.52;3.00;;;;;;;;;;5053458;28;20602;-29
2023/08/22 02:37:31;;;;;;;5.38;2.72;;;;;;;;;;5053686;28;20369;-28
2023/08/22 02:39:56;;;;;;;7.23;2.87;;;;;;;;;;5053414;28;20036;-28
2023/08/22 02:42:22;;;;;;;6.63;2.70;;;;;;;;;;5053313;28;20294;-29
2023/08/22 02:44:47;;;;;;;6.65;2.97;;;;;;;;;;5053589;28;20074;-29
2023/08/22 02:47:12;;;;;;;7.53;3.30;;;;;;;;;;5053862;28;20076;-28
2023/08/22 02:49:38;;;;;;;7.85;3.03;;;;;;;;;;5053201;28;20734;-28
2023/08/22 02:52:03;;;;;;;6.53;2.77;;;;;;;;;;5053805;28;20040;-28
2023/08/22 02:54:28;;;;;;;6.90;3.00;;;;;;;;;;5053585;28;20785;-28
2023/08/22 02:56:53;;;;;;;7.73;3.30;;;;;;;;;;5053914;28;20447;-28
2023/08/22 02:59:20;;;;;;;7.87;3.03;;;;;;;;;;5057413;28;20243;-28
2023/08/22 03:01:45;;;;;;;8.18;3.08;;;;;;;;;;5057625;28;20017;-29
2023/08/22 03:04:10;;;;;;;6.55;3.05;;;;;;;;;;5057266;28;20028;-28
2023/08/22 03:06:36;;;;;;;8.63;3.20;;;;;;;;;;5057588;28;20013;-28
2023/08/22 03:09:03;;;;;;;5.97;3.17;;;;;;;;;;5057559;28;20020;-28
2023/08/22 03:11:28;;;;;;;8.45;3.28;;;;;;;;;;5057240;28;20425;-28
2023/08/22 03:13:53;;;;;;;9.33;3.43;;;;;;;;;;5057234;28;20092;-28
2023/08/22 03:16:18;;;;;;;6.85;3.50;;;;;;;;;;5057097;28;20259;-28
2023/08/22 03:18:43;;;;;;;6.23;3.50;;;;;;;;;;5057373;28;20094;-28
2023/08/22 03:21:09;;;;;;;7.63;3.30;;;;;;;;;;5057019;28;20342;-28
2023/08/22 03:23:34;;;;;;;8.00;3.72;;;;;;;;;;5057260;28;20275;-28
2023/08/22 03:26:00;;;;;;;9.43;2.90;;;;;;;;;;5057462;28;20021;-28
2023/08/22 03:28:26;;;;;;;11.27;3.35;;;;;;;;;;5057100;28;20798;-29
2023/08/22 03:30:55;;;;;;;6.40;3.33;;;;;;;;;;5057104;28;20044;-28
2023/08/22 03:33:21;;;;;;;10.43;3.40;;;;;;;;;;5057132;28;20031;-28
2023/08/22 03:35:46;;;;;;;12.05;3.33;;;;;;;;;;5057002;28;20025;-28
2023/08/22 03:38:11;;;;;;;9.20;3.40;;;;;;;;;;5057009;28;20048;-28
2023/08/22 03:40:36;;;;;;;8.80;3.63;;;;;;;;;;5056712;28;20066;-28
2023/08/22 03:43:02;;;;;;;8.23;3.30;;;;;;;;;;5057115;28;20313;-28
2023/08/22 03:45:27;;;;;;;7.13;3.10;;;;;;;;;;5056589;28;20312;-28
2023/08/22 03:47:52;;;;;;;7.17;3.37;;;;;;;;;;5056837;28;20021;-28
2023/08/22 03:50:17;;;;;;;6.63;3.20;;;;;;;;;;5056481;28;20433;-27
2023/08/22 03:52:42;;;;;;;7.53;3.10;;;;;;;;;;5056423;28;20256;-28
2023/08/22 03:55:08;;;;;;;8.47;4.00;;;;;;;;;;5056609;28;20032;-28
2023/08/22 03:57:33;;;;;;;8.80;3.55;;;;;;;;;;5056360;28;20033;-28
2023/08/22 03:59:58;;;;;;;7.63;3.63;;;;;;;;;;5056325;28;20354;-28
2023/08/22 04:02:23;;;;;;;10.07;4.33;;;;;;;;;;5056465;28;20032;-28
2023/08/22 04:04:48;;;;;;;8.97;4.23;;;;;;;;;;5056211;28;20606;-28
2023/08/22 04:07:13;;;;;;;9.70;4.30;;;;;;;;;;5056726;28;20100;-28
2023/08/22 04:09:39;;;;;;;7.17;3.50;;;;;;;;;;5055902;28;20013;-28
2023/08/22 04:12:04;;;;;;;6.57;3.50;;;;;;;;;;5055934;28;20048;-28
2023/08/22 04:14:29;;;;;;;8.43;3.33;;;;;;;;;;5056550;28;20252;-28
2023/08/22 04:16:54;;;;;;;8.07;3.33;;;;;;;;;;5056561;28;20023;-28
2023/08/22 04:19:19;;;;;;;7.13;3.10;;;;;;;;;;5056510;28;20017;-29
2023/08/22 04:21:45;;;;;;;7.17;3.30;;;;;;;;;;5056216;28;20294;-28
2023/08/22 04:24:11;;;;;;;8.43;3.50;;;;;;;;;;5055802;28;20295;-28
2023/08/22 04:26:37;;;;;;;6.97;3.13;;;;;;;;;;5055793;28;20017;-28
2023/08/22 04:29:02;;;;;;;8.52;3.67;;;;;;;;;;5055721;28;20016;-28
2023/08/22 04:31:27;;;;;;;10.33;3.63;;;;;;;;;;5055678;28;20100;-28
2023/08/22 04:33:52;;;;;;;9.40;3.80;;;;;;;;;;5055746;28;20730;-28
2023/08/22 04:36:17;;;;;;;7.40;3.50;;;;;;;;;;5055472;28;20267;-29
2023/08/22 04:38:43;;;;;;;10.30;4.00;;;;;;;;;;5055828;28;20259;-29
2023/08/22 04:41:08;;;;;;;8.18;3.80;;;;;;;;;;5056210;28;20112;-27
2023/08/22 04:43:33;;;;;;;8.10;3.90;;;;;;;;;;5055901;28;20048;-28
2023/08/22 04:46:00;;;;;;;6.88;3.88;;;;;;;;;;5055459;28;20040;-28
2023/08/22 04:48:25;;;;;;;8.77;3.70;;;;;;;;;;5055365;28;20036;-28
2023/08/22 04:50:50;;;;;;;9.50;3.67;;;;;;;;;;5055380;28;20021;-29
2023/08/22 04:53:16;;;;;;;6.67;3.50;;;;;;;;;;5055548;28;20270;-28
2023/08/22 04:55:41;;;;;;;8.60;3.70;;;;;;;;;;5055235;28;20255;-28
2023/08/22 04:58:06;;;;;;;7.80;3.80;;;;;;;;;;5055219;28;20291;-29
2023/08/22 05:00:31;;;;;;;10.57;5.03;;;;;;;;;;5053906;28;20021;-28
2023/08/22 05:02:56;;;;;;;8.47;4.80;;;;;;;;;;5055327;28;20294;-28
2023/08/22 05:05:22;;;;;;;11.27;5.10;;;;;;;;;;5055018;28;20654;-29
2023/08/22 05:07:47;;;;;;;10.33;6.07;;;;;;;;;;5055052;28;20718;-29
2023/08/22 05:10:12;;;;;;;15.07;6.77;;;;;;;;;;5055045;28;20254;-28
2023/08/22 05:12:37;;;;;;;11.55;6.20;;;;;;;;;;5054735;28;20287;-28
2023/08/22 05:15:03;;;;;;;14.93;6.03;;;;;;;;;;5055453;28;20028;-28
2023/08/22 05:17:28;;;;;;;11.32;6.38;;;;;;;;;;5055102;28;20310;-28
2023/08/22 05:19:54;;;;;;;12.77;5.97;;;;;;;;;;5054819;28;20021;-29
2023/08/22 05:22:19;;;;;;;12.97;6.60;;;;;;;;;;5054952;28;20324;-28
2023/08/22 05:24:44;;;;;;;15.20;6.23;;;;;;;;;;5054802;28;20654;-29
2023/08/22 05:27:09;;;;;;;10.03;5.73;;;;;;;;;;5054563;28;20331;-29
2023/08/22 05:29:34;;;;;;;13.93;7.33;;;;;;;;;;5055117;28;20255;-29
2023/08/22 05:31:59;;;;;;;13.50;6.57;;;;;;;;;;5055093;28;20248;-28
2023/08/22 05:34:25;;;;;;;12.87;6.33;;;;;;;;;;5054516;28;20262;-28
2023/08/22 05:36:50;;;;;;;13.17;6.37;;;;;;;;;;5055059;28;20268;-28
2023/08/22 05:39:15;;;;;;;16.20;6.33;;;;;;;;;;5054954;28;20618;-28
2023/08/22 05:41:40;;;;;;;11.63;5.30;;;;;;;;;;5054358;28;20252;-28
2023/08/22 05:44:05;;;;;;;12.90;5.53;;;;;;;;;;5054802;28;20074;-29
2023/08/22 05:46:30;;;;;;;10.03;5.70;;;;;;;;;;5054395;28;20013;-28
2023/08/22 05:48:56;;;;;;;11.93;5.37;;;;;;;;;;5054141;28;20289;-29
2023/08/22 05:51:21;;;;;;;12.07;5.65;;;;;;;;;;5054328;28;20259;-29
2023/08/22 05:53:46;;;;;;;12.52;5.65;;;;;;;;;;5054415;28;20049;-28
2023/08/22 05:56:11;;;;;;;13.10;5.50;;;;;;;;;;5054096;28;20407;-29
2023/08/22 05:58:37;;;;;;;13.67;5.83;;;;;;;;;;5054129;28;20025;-29
2023/08/22 06:01:06;;;;;;;14.95;5.55;;;;;;;;;;5054328;28;20263;-29
2023/08/22 06:03:31;;;;;;;13.88;5.15;;;;;;;;;;5053889;28;20032;-29
2023/08/22 06:05:56;;;;;;;13.57;5.80;;;;;;;;;;5053925;28;20515;-28
2023/08/22 06:08:21;;;;;;;11.83;5.53;;;;;;;;;;5053859;28;20761;-28
2023/08/22 06:10:46;;;;;;;13.60;5.77;;;;;;;;;;5054051;28;20071;-29
2023/08/22 06:13:12;;;;;;;12.67;5.80;;;;;;;;;;5053611;28;20276;-28
2023/08/22 06:15:37;;;;;;;10.17;5.47;;;;;;;;;;5054009;28;20263;-28
2023/08/22 06:18:02;;;;;;;9.00;5.60;;;;;;;;;;5053668;28;20281;-28
2023/08/22 06:20:27;;;;;;;13.45;6.03;;;;;;;;;;5053963;28;20047;-28
2023/08/22 06:22:52;;;;;;;13.33;5.93;;;;;;;;;;5053621;28;20021;-28
2023/08/22 06:25:18;;;;;;;10.40;5.22;;;;;;;;;;5053808;28;20255;-28
2023/08/22 06:27:43;;;;;;;14.53;4.73;;;;;;;;;;5053870;28;20013;-28
2023/08/22 06:30:08;;;;;;;11.07;5.03;;;;;;;;;;5053813;28;20299;-28
2023/08/22 06:32:33;;;;;;;12.52;5.50;;;;;;;;;;5053059;28;20025;-28
2023/08/22 06:35:03;;;;;;;16.60;5.17;;;;;;;;;;5053432;28;20068;-28
2023/08/22 06:37:29;;;;;;;11.60;5.68;;;;;;;;;;5053381;28;20027;-28
2023/08/22 06:39:54;;;;;;;10.77;5.00;;;;;;;;;;5054012;28;20033;-28
2023/08/22 06:42:19;;;;;;;9.83;4.70;;;;;;;;;;5053321;28;20302;-28
2023/08/22 06:44:44;;;;;;;9.77;4.43;;;;;;;;;;5053336;28;20468;-28
2023/08/22 06:47:09;;;;;;;8.60;4.70;;;;;;;;;;5053779;28;20013;-28
2023/08/22 06:49:35;;;;;;;8.50;4.37;;;;;;;;;;5053474;28;20279;-28
2023/08/22 06:52:00;;;;;;;10.23;4.40;;;;;;;;;;5053173;28;20059;-29
2023/08/22 06:54:25;;;;;;;12.47;4.50;;;;;;;;;;5053421;28;20419;-29
2023/08/22 06:56:50;;;;;;;12.40;4.20;;;;;;;;;;5052331;28;20021;-29
2023/08/22 06:59:16;;;;;;;7.90;4.10;;;;;;;;;;5053430;28;20013;-30
2023/08/22 07:01:41;;;;;;;9.82;4.18;;;;;;;;;;5053417;28;20044;-29
2023/08/22 07:04:07;;;;;;;7.33;3.83;;;;;;;;;;5053375;28;20013;-28
2023/08/22 07:06:32;;;;;;;7.63;3.90;;;;;;;;;;5053186;28;20021;-29
2023/08/22 07:08:57;;;;;;;7.23;3.97;;;;;;;;;;5053657;28;20078;-28
2023/08/22 07:11:22;;;;;;;7.63;3.70;;;;;;;;;;5053193;28;20055;-29
2023/08/22 07:13:48;;;;;;;9.67;3.60;;;;;;;;;;5053095;28;20107;-29
2023/08/22 07:16:13;;;;;;;7.50;3.60;;;;;;;;;;5053339;28;20029;-30
2023/08/22 07:18:38;;;;;;;8.57;4.03;;;;;;;;;;5053038;28;20031;-29
2023/08/22 07:21:04;;;;;;;11.00;3.80;;;;;;;;;;5054102;28;20028;-29
2023/08/22 07:23:29;;;;;;;10.63;3.80;;;;;;;;;;5053077;28;20050;-29
2023/08/22 07:25:55;;;;;;;10.43;3.92;;;;;;;;;;5052606;28;20375;-29
2023/08/22 07:28:20;;;;;;;10.10;3.90;;;;;;;;;;5052038;28;20460;-29
2023/08/22 07:30:46;;;;;;;8.83;3.77;;;;;;;;;;5052193;28;20024;-29
2023/08/22 07:33:11;;;;;;;10.52;4.30;;;;;;;;;;5052508;28;20024;-29
2023/08/22 07:35:37;;;;;;;12.68;3.95;;;;;;;;;;5052168;28;20032;-29
2023/08/22 07:38:02;;;;;;;10.77;3.73;;;;;;;;;;5052173;28;20478;-29
2023/08/22 07:40:29;;;;;;;10.10;3.80;;;;;;;;;;5052771;28;20256;-29
2023/08/22 07:42:55;;;;;;;8.65;4.10;;;;;;;;;;5052773;28;20029;-29
2023/08/22 07:45:21;;;;;;;7.90;3.50;;;;;;;;;;5055480;28;20363;-29
2023/08/22 07:47:46;;;;;;;11.43;4.23;;;;;;;;;;5056510;28;20092;-29
2023/08/22 07:50:11;;;;;;;13.03;3.80;;;;;;;;;;5056832;28;20041;-28
2023/08/22 07:52:36;;;;;;;9.60;4.13;;;;;;;;;;5056474;28;20262;-28
2023/08/22 07:55:02;;;;;;;15.37;4.53;;;;;;;;;;5056631;28;20060;-28
2023/08/22 07:57:27;;;;;;;12.35;4.57;;;;;;;;;;5056236;28;20271;-28
2023/08/22 07:59:53;;;;;;;12.68;3.88;;;;;;;;;;5056547;28;20028;-28
2023/08/22 08:02:19;;;;;;;11.32;3.97;;;;;;;;;;5056410;28;20028;-28
2023/08/22 08:04:44;;;;;;;10.43;4.37;;;;;;;;;;5056193;28;20407;-28
2023/08/22 08:07:09;;;;;;;12.90;4.35;;;;;;;;;;5056427;28;20009;-28
2023/08/22 08:09:34;;;;;;;12.63;4.47;;;;;;;;;;5056153;28;20025;-28
2023/08/22 08:12:00;;;;;;;12.10;4.68;;;;;;;;;;5056147;28;20045;-29
2023/08/22 08:14:25;;;;;;;11.17;4.47;;;;;;;;;;5056528;28;20071;-29
2023/08/22 08:16:50;;;;;;;11.23;4.93;;;;;;;;;;5055969;28;20124;-29
2023/08/22 08:19:15;;;;;;;10.50;4.57;;;;;;;;;;5056507;28;20301;-29
2023/08/22 08:21:41;;;;;;;9.43;3.88;;;;;;;;;;5055782;28;20437;-29
2023/08/22 08:24:06;;;;;;;10.85;5.00;;;;;;;;;;5055858;28;20025;-29
2023/08/22 08:26:31;;;;;;;15.27;5.23;;;;;;;;;;5056094;28;20048;-29
2023/08/22 08:28:57;;;;;;;9.73;3.87;;;;;;;;;;5055752;28;20250;-29
2023/08/22 08:31:22;;;;;;;11.90;4.68;;;;;;;;;;5055877;28;20292;-29
2023/08/22 08:33:47;;;;;;;9.30;3.93;;;;;;;;;;5056276;28;20028;-29
2023/08/22 08:36:12;;;;;;;11.77;4.67;;;;;;;;;;5055803;28;20043;-29
2023/08/22 08:38:37;;;;;;;10.80;5.10;;;;;;;;;;5055485;28;20056;-29
2023/08/22 08:41:03;;;;;;;12.90;4.50;;;;;;;;;;5056028;28;20021;-29
2023/08/22 08:43:30;;;;;;;9.98;3.92;;;;;;;;;;5055291;28;20048;-28
2023/08/22 08:45:55;;;;;;;10.88;4.47;;;;;;;;;;5055413;28;20032;-28
2023/08/22 08:48:21;;;;;;;10.00;4.00;;;;;;;;;;5055390;28;20017;-28
2023/08/22 08:50:47;;;;;;;9.85;4.63;;;;;;;;;;5055301;28;20013;-29
2023/08/22 08:53:13;;;;;;;10.32;4.55;;;;;;;;;;5056022;28;20032;-29
2023/08/22 08:55:41;;;;;;;12.20;5.07;;;;;;;;;;5054908;28;20017;-29
2023/08/22 08:58:07;;;;;;;13.23;4.70;;;;;;;;;;5055752;28;20510;-28
2023/08/22 09:00:32;;;;;;;9.82;4.30;;;;;;;;;;5055376;28;20064;-28
2023/08/22 09:02:57;;;;;;;11.32;4.60;;;;;;;;;;5055068;28;20373;-28
2023/08/22 09:05:23;;;;;;;15.13;5.33;;;;;;;;;;5055240;28;20025;-28
2023/08/22 09:07:48;;;;;;;14.63;5.40;;;;;;;;;;5054511;28;20013;-28
2023/08/22 09:10:13;;;;;;;15.33;5.43;;;;;;;;;;5055034;28;20044;-29
2023/08/22 09:12:39;;;;;;;17.17;5.55;;;;;;;;;;5054824;28;20538;-29
2023/08/22 09:15:09;;;;;;;9.52;4.70;;;;;;;;;;5055203;28;20029;-28
2023/08/22 09:17:34;;;;;;;11.50;5.43;;;;;;;;;;5055134;28;20092;-29
2023/08/22 09:20:08;;;;;;;13.03;5.90;;;;;;;;;;5054759;28;20056;-29
2023/08/22 09:22:35;;;;;;;9.25;4.22;;;;;;;;;;5054654;28;20025;-29
2023/08/22 09:25:00;;;;;;;14.63;6.25;;;;;;;;;;5054682;28;20052;-29
2023/08/22 09:27:26;;;;;;;11.77;5.22;;;;;;;;;;5054931;28;20083;-30
2023/08/22 09:29:51;;;;;;;10.00;5.55;;;;;;;;;;5054757;28;20027;-29
2023/08/22 09:32:16;;;;;;;14.30;3.90;;;;;;;;;;5054607;28;20384;-29
2023/08/22 09:34:51;;;;;;;9.47;5.37;;;;;;;;;;5055107;28;20273;-29
2023/08/22 09:37:28;;;;;;;17.33;5.60;;;;;;;;;;5055020;28;20729;-28
2023/08/22 09:39:54;;;;;;;11.82;6.22;;;;;;;;;;5054407;28;20025;-27
2023/08/22 09:42:19;;;;;;;11.95;5.57;;;;;;;;;;5054552;28;20017;-27
2023/08/22 09:44:44;;;;;;;10.77;5.07;;;;;;;;;;5054858;28;20017;-28
2023/08/22 09:47:09;;;;;;;12.10;6.53;;;;;;;;;;5054270;28;20013;-28
2023/08/22 09:49:35;;;;;;;13.27;7.00;;;;;;;;;;5054214;28;20017;-29
2023/08/22 09:52:01;;;;;;;13.02;6.03;;;;;;;;;;5054440;28;20256;-28
2023/08/22 09:54:27;;;;;;;10.00;5.35;;;;;;;;;;5054480;28;20025;-28
2023/08/22 09:56:52;;;;;;;15.07;5.82;;;;;;;;;;5054328;28;20028;-28
2023/08/22 09:59:18;;;;;;;10.93;4.45;;;;;;;;;;5054077;28;20444;-28
2023/08/22 10:01:44;;;;;;;14.38;5.63;;;;;;;;;;5053994;28;20035;-28
2023/08/22 10:04:09;;;;;;;11.13;5.68;;;;;;;;;;5053840;28;20025;-29
2023/08/22 10:06:35;;;;;;;13.57;5.70;;;;;;;;;;5053446;28;20021;-29
2023/08/22 10:09:10;;;;;;;17.13;6.65;;;;;;;;;;5053709;28;20050;-29
2023/08/22 10:11:37;;;;;;;16.95;8.23;;;;;;;;;;5053917;28;20139;-29
2023/08/22 10:14:03;;;;;;;10.00;5.22;;;;;;;;;;5054187;28;20056;-29
2023/08/22 10:16:29;;;;;;;14.18;5.35;;;;;;;;;;5054280;28;20021;-29
2023/08/22 10:19:02;;;;;;;11.20;6.03;;;;;;;;;;5053968;28;20032;-29
2023/08/22 10:21:31;;;;;;;10.38;5.93;;;;;;;;;;5053924;28;20037;-29
2023/08/22 10:23:58;;;;;;;16.45;6.25;;;;;;;;;;5053867;28;20435;-29
2023/08/22 10:26:25;;;;;;;13.50;6.70;;;;;;;;;;5053830;28;20068;-29
2023/08/22 10:29:09;;;;;;;14.25;6.10;;;;;;;;;;5053852;28;20077;-28
2023/08/22 10:31:54;;;;;;;9.35;4.63;;;;;;;;;;5053911;28;20449;-28
2023/08/22 10:34:20;;;;;;;10.60;5.50;;;;;;;;;;5053945;28;20048;-28
2023/08/22 10:36:58;;;;;;;11.27;5.00;;;;;;;;;;5053511;28;20067;-28
2023/08/22 10:39:39;;;;;;;9.48;5.03;;;;;;;;;;5053390;28;20032;-28
2023/08/22 10:42:08;;;;;;;12.90;5.18;;;;;;;;;;5053590;28;20049;-28
2023/08/22 10:44:36;;;;;;;13.25;6.32;;;;;;;;;;5053675;28;20059;-28
2023/08/22 10:47:06;;;;;;;10.80;4.97;;;;;;;;;;5053450;28;20017;-28
2023/08/22 10:49:32;;;;;;;9.98;5.22;;;;;;;;;;5053493;28;20414;-28
2023/08/22 10:52:07;;;;;;;14.00;5.18;;;;;;;;;;5053599;28;20070;-28
2023/08/22 10:54:51;;;;;;;10.73;4.55;;;;;;;;;;5053193;28;20024;-28
2023/08/22 10:57:17;;;;;;;9.23;4.85;;;;;;;;;;5053163;28;20031;-28
2023/08/22 10:59:55;;;;;;;10.95;4.80;;;;;;;;;;5053087;28;20099;-28
2023/08/22 11:02:21;;;;;;;12.73;5.25;;;;;;;;;;5053426;28;20107;-28
2023/08/22 11:04:47;;;;;;;10.57;3.80;;;;;;;;;;5052046;28;20096;-28
2023/08/22 11:07:12;;;;;;;11.90;6.00;;;;;;;;;;5053283;28;20537;-28
2023/08/22 11:09:39;;;;;;;8.45;4.22;;;;;;;;;;5053078;28;20095;-28
2023/08/22 11:12:16;;;;;;;17.13;3.97;;;;;;;;;;5052881;28;20071;-28
2023/08/22 11:14:45;;;;;;;12.10;4.68;;;;;;;;;;5052976;28;20047;-29
2023/08/22 11:17:12;;;;;;;9.73;4.60;;;;;;;;;;5053322;28;20013;-30
2023/08/22 11:19:37;;;;;;;12.40;5.25;;;;;;;;;;5056008;28;20029;-29
2023/08/22 11:22:05;;;;;;;13.98;4.93;;;;;;;;;;5056364;28;20136;-29
2023/08/22 11:24:30;;;;;;;9.27;4.55;;;;;;;;;;5057552;28;20436;-28
2023/08/22 11:26:55;;;;;;;14.30;5.23;;;;;;;;;;5056854;28;20044;-28
2023/08/22 11:29:22;;;;;;;6.73;3.43;;;;;;;;;;5057173;28;20278;-28
2023/08/22 11:31:48;;;;;;;15.02;4.82;;;;;;;;;;5057073;28;20282;-28
2023/08/22 11:34:13;;;;;;;9.98;4.50;;;;;;;;;;5057062;28;20029;-28
2023/08/22 11:36:39;;;;;;;9.07;3.90;;;;;;;;;;5057374;28;20063;-28
2023/08/22 11:39:07;;;;;;;7.13;3.45;;;;;;;;;;5056773;28;20024;-29
2023/08/22 11:41:32;;;;;;;10.18;2.60;;;;;;;;;;5056928;28;20020;-28
2023/08/22 11:44:00;;;;;;;9.60;3.53;;;;;;;;;;5056561;28;20020;-29
2023/08/22 11:46:26;;;;;;;9.15;4.25;;;;;;;;;;5056561;28;20098;-28
2023/08/22 11:48:51;;;;;;;10.63;3.85;;;;;;;;;;5056745;28;20159;-29
2023/08/22 11:51:18;;;;;;;13.88;3.70;;;;;;;;;;5056358;28;20021;-29
2023/08/22 11:53:44;;;;;;;11.23;3.50;;;;;;;;;;5056725;28;20066;-29
2023/08/22 11:56:09;;;;;;;12.00;3.40;;;;;;;;;;5056614;28;20017;-29
2023/08/22 11:58:35;;;;;;;8.67;3.47;;;;;;;;;;5056222;28;20024;-29
2023/08/22 12:01:00;;;;;;;13.15;3.60;;;;;;;;;;5056316;28;20025;-29
2023/08/22 12:03:38;;;;;;;8.10;3.13;;;;;;;;;;5056041;28;20028;-29
2023/08/22 12:06:12;;;;;;;12.75;4.00;;;;;;;;;;5056184;28;20032;-28
2023/08/22 12:08:37;;;;;;;10.40;3.35;;;;;;;;;;5056392;28;20040;-28
2023/08/22 12:11:03;;;;;;;8.57;2.95;;;;;;;;;;5056654;28;20009;-28
2023/08/22 12:13:29;;;;;;;10.20;3.20;;;;;;;;;;5056039;28;20047;-29
2023/08/22 12:15:54;;;;;;;10.05;2.80;;;;;;;;;;5054529;28;20496;-29
2023/08/22 12:18:27;;;;;;;10.65;3.00;;;;;;;;;;5055954;28;20036;-29
2023/08/22 12:20:52;;;;;;;;;;;;;;;;;;5056389;28;20031;-29
2023/08/22 12:23:17;;;;;;;8.20;2.95;;;;;;;;;;5056300;28;19912;-29
2023/08/22 12:25:43;;;;;;;10.50;2.87;;;;;;;;;;5056014;28;20395;-29
2023/08/22 12:28:08;;;;;;;11.65;3.35;;;;;;;;;;5056348;28;20031;-29
2023/08/22 12:30:35;;;;;;;11.38;3.20;;;;;;;;;;5055458;28;20039;-28
2023/08/22 12:33:01;;;;;;;9.55;3.00;;;;;;;;;;5055969;28;20479;-29
2023/08/22 12:35:26;;;;;;;7.80;2.92;;;;;;;;;;5055965;28;20021;-29
2023/08/22 12:37:51;;;;;;;12.15;3.22;;;;;;;;;;5055619;28;20032;-29
2023/08/22 12:40:17;;;;;;;11.53;3.00;;;;;;;;;;5055597;28;20043;-28
2023/08/22 12:42:42;;;;;;;9.53;2.60;;;;;;;;;;5055557;28;20276;-29
2023/08/22 12:45:08;;;;;;;8.30;2.50;;;;;;;;;;5054239;28;20024;-30
2023/08/22 12:47:35;;;;;;;7.80;2.28;;;;;;;;;;5055324;28;20017;-29
2023/08/22 12:50:01;;;;;;;6.22;2.05;;;;;;;;;;5055727;28;20045;-30
2023/08/22 12:52:26;;;;;;;9.23;2.50;;;;;;;;;;5055926;28;20407;-30
2023/08/22 12:54:51;;;;;;;5.70;2.20;;;;;;;;;;5055338;28;20048;-29
2023/08/22 12:57:16;;;;;;;6.53;2.37;;;;;;;;;;5055823;28;20017;-29
2023/08/22 12:59:41;;;;;;;9.70;2.40;;;;;;;;;;5055352;28;20051;-30
2023/08/22 13:02:06;;;;;;;8.20;3.03;;;;;;;;;;5055526;28;20013;-29
2023/08/22 13:04:32;;;;;;;8.40;2.22;;;;;;;;;;5055103;28;20107;-28
2023/08/22 13:06:57;;;;;;;7.77;2.70;;;;;;;;;;5055544;28;20012;-28
2023/08/22 13:09:22;;;;;;;10.47;2.40;;;;;;;;;;5055034;28;20029;-28
2023/08/22 13:11:47;;;;;;;7.77;2.80;;;;;;;;;;5054861;28;20049;-28
2023/08/22 13:14:12;;;;;;;9.23;2.77;;;;;;;;;;5055221;28;20384;-29
2023/08/22 13:16:38;;;;;;;7.30;2.33;;;;;;;;;;5054927;28;20017;-28
2023/08/22 13:19:03;;;;;;;6.05;2.30;;;;;;;;;;5055150;28;20266;-28
2023/08/22 13:21:29;;;;;;;11.32;2.80;;;;;;;;;;5055372;28;20511;-28
2023/08/22 13:23:54;;;;;;;5.17;2.00;;;;;;;;;;5054995;28;20088;-29
2023/08/22 13:26:20;;;;;;;8.88;2.63;;;;;;;;;;5054638;28;20276;-29
2023/08/22 13:28:45;;;;;;;8.63;2.45;;;;;;;;;;5054911;28;20041;-29
2023/08/22 13:31:11;;;;;;;8.30;2.22;;;;;;;;;;5054619;28;20441;-28
2023/08/22 13:33:36;;;;;;;8.52;2.55;;;;;;;;;;5054599;28;20021;-28
2023/08/22 13:36:02;;;;;;;8.50;2.67;;;;;;;;;;5055033;28;20029;-29
2023/08/22 13:38:27;;;;;;;8.77;2.72;;;;;;;;;;5054535;28;20284;-29
2023/08/22 13:40:52;;;;;;;4.77;1.77;;;;;;;;;;5054374;28;20032;-29
2023/08/22 13:43:17;;;;;;;10.43;2.40;;;;;;;;;;5053831;28;20283;-29
2023/08/22 13:45:42;;;;;;;9.17;2.07;;;;;;;;;;5054413;28;20021;-29
2023/08/22 13:48:07;;;;;;;6.53;2.20;;;;;;;;;;5054338;28;20487;-28
2023/08/22 13:50:33;;;;;;;6.53;2.13;;;;;;;;;;5054819;28;20103;-28
2023/08/22 13:52:58;;;;;;;8.17;2.83;;;;;;;;;;5054672;28;20372;-29
2023/08/22 13:55:23;;;;;;;7.28;2.60;;;;;;;;;;5054281;28;20031;-29
2023/08/22 13:57:48;;;;;;;7.70;2.43;;;;;;;;;;5054637;28;20021;-29
2023/08/22 14:00:14;;;;;;;7.00;2.23;;;;;;;;;;5054116;28;20041;-29
2023/08/22 14:02:39;;;;;;;8.02;2.58;;;;;;;;;;5053956;28;20380;-29
2023/08/22 14:05:04;;;;;;;8.82;2.08;;;;;;;;;;5054190;28;20040;-29
2023/08/22 14:07:29;;;;;;;5.72;2.10;;;;;;;;;;5053895;28;20024;-29
2023/08/22 14:09:55;;;;;;;7.47;2.13;;;;;;;;;;5054418;28;20021;-29
2023/08/22 14:12:20;;;;;;;6.87;2.00;;;;;;;;;;5053742;28;20551;-29
2023/08/22 14:14:45;;;;;;;8.83;2.03;;;;;;;;;;5054386;28;20259;-27
2023/08/22 14:17:10;;;;;;;8.27;2.17;;;;;;;;;;5053797;28;20435;-27
2023/08/22 14:19:35;;;;;;;8.10;1.90;;;;;;;;;;5053724;28;20099;-28
2023/08/22 14:22:01;;;;;;;9.13;2.10;;;;;;;;;;5053573;28;20294;-28
2023/08/22 14:24:26;;;;;;;8.70;2.10;;;;;;;;;;5053818;28;20416;-29
2023/08/22 14:26:51;;;;;;;7.03;2.07;;;;;;;;;;5053587;28;20252;-28
2023/08/22 14:29:16;;;;;;;6.90;2.20;;;;;;;;;;5052537;28;20471;-28
2023/08/22 14:31:41;;;;;;;13.00;2.43;;;;;;;;;;5052572;28;20255;-29